Terminal Aerodrome Forecast
Issued by NWS

Home | Current Version | Previous Version | Text Only | Print | Product List | Glossary On
Versions: 1 2 3 4 5 6 7 8 9 10 11 12 13 14 15 16
943
FTUS43 KICT 241720
TAFHUT
TAF
KHUT 241720Z 2418/2518 35010KT P6SM BKN150
     FM242300 35012KT P6SM VCSH BKN070
     FM250300 35010KT 6SM -SHRA OVC030
     FM250700 33010KT 4SM -SHRA OVC015
     FM251300 33009KT P6SM OVC015=

USA.gov is the U.S. government's official web portal to all federal, state and local government web resources and services.